Terminal Aerodrome Forecast
Issued by NWS

Home | Current Version | Previous Version | Text Only | Print | Product List | Glossary On
Versions: 1 2 3 4 5 6 7 8 9 10 11 12 13 14 15
000
FTUS43 KMQT 201431 AAA
TAFCMX
TAF AMD
KCMX 201431Z 2015/2112 09010KT P6SM VCSH BKN050 OVC140
     FM201600 15015G26KT P6SM SCT008 BKN035
     FM202100 21013KT P6SM VCTS BKN020CB
     FM210100 26007KT P6SM VCSH SCT020
     FM210300 28007KT P6SM SCT090
     FM210500 VRB04KT 4SM BR FEW150
     FM210800 00000KT 1 1/2SM BR SCT001=

USA.gov is the U.S. government's official web portal to all federal, state and local government web resources and services.